New Iberia, LA

12:19 AM CDT on April 25, 2015 (GMT -0500)
New Iberia City Park Neighborhood | | Change Station
CLOSE
Current Station
Personal Weather Station
Location: New Iberia, LA
Elevation: 43 ft
Nearby Weather Stations

Elev 43 ft 30.00 °N, 91.80 °W | Updated 1 second ago

Overcast
Overcast
77.4 °F
Feels Like 79 °F
N
5.1
Wind Variable Wind from SSW
Gusts 7.4 mph

Today
High -- | Low -- °F
--% Chance of Precip.
Yesterday
High -- | Low -- °F
Precip. -- in
6:30 AM 7:40 PM
Waxing Crescent, 42% visible
Pressure 29.79 in
Visibility 7.0 miles
Clouds Mostly Cloudy 1000 ft
Overcast 1400 ft
Heat Index 79 °F
Dew Point 75 °F
Humidity 93%
Rainfall 0.00 in
Snow Depth Not available.
UV 0.0 out of 12
Pollen 7.70 out of 12
Air Quality Not available.
Flu Activity Sporadic
SPECI KARA 250501Z AUTO 18013KT 7SM BKN010 OVC014 26/24 A2979 RMK AO2 T02560239 TSNO

More Conditions Fewer Conditions

Pressure 29.79 in
Visibility 7.0 miles
Clouds Mostly Cloudy 1000 ft
Overcast 1400 ft
Heat Index 79 °F
Dew Point 75 °F
Humidity 93%
Rainfall 0.00 in
Snow Depth Not available.
UV 0.0 out of 12
Pollen 7.70 out of 12
Air Quality Not available.
Flu Activity Sporadic
SPECI KARA 250501Z AUTO 18013KT 7SM BKN010 OVC014 26/24 A2979 RMK AO2 T02560239 TSNO

More Conditions Fewer Conditions

There is an enhanced risk of severe weather for parts of Texas, Louisiana, southern Arkansas, and Kansas. A slight risk of severe weather encompasses a wide area of the Plains and Lower Mississippi Valley as well. This means severe thunderstorms will be capable of producing strong wind, large hail, heavy rain, and the possibility of tornadoes into the evening.

10-Day Weather Forecast

Almanac

Astronomy

Apr. 25, 2015 Rise Set
Actual Time
Civil Twilight
Nautical Twilight
Astronomical Twilight
Moon
Length of Visible Light
Length of Day
Tomorrow will be .
, % of the Moon is Illuminated

Today's Extremes

State Highs State Lows

Community

WunderPhotos

Upload Photos

1,816,607 photos uploaded!

WunderBlogs® & News

Nearby

Air Quality

  Air Quality AQ Index Pollutant
Not available.

Snow Depth

Station Depth Elevation

Earthquake Activity

City Distance Mag. Time & Date
Minimum magnitude displayed is 2.5.

Coastal Water Temperatures

Place Temperature

Stations

Nearby Weather Stations

Station Location Temp. Windchill Dew Point Humidity Wind Precip. Elev Updated Type